sensor_id;sensor_type;location;lat;lon;timestamp;P1;durP1;ratioP1;P2;durP2;ratioP2
44508;SDS011;30214;52.246;14.408;2022-08-14T00:00:10;11.50;;;10.07;;
44508;SDS011;30214;52.246;14.408;2022-08-14T00:02:41;12.82;;;9.98;;
44508;SDS011;30214;52.246;14.408;2022-08-14T00:05:12;13.48;;;9.88;;
44508;SDS011;30214;52.246;14.408;2022-08-14T00:07:42;11.73;;;10.23;;
44508;SDS011;30214;52.246;14.408;2022-08-14T00:10:10;11.45;;;9.88;;
44508;SDS011;30214;52.246;14.408;2022-08-14T00:12:45;14.23;;;10.32;;
44508;SDS011;30214;52.246;14.408;2022-08-14T00:15:16;11.50;;;10.27;;
44508;SDS011;30214;52.246;14.408;2022-08-14T00:17:48;11.82;;;10.20;;
44508;SDS011;30214;52.246;14.408;2022-08-14T00:20:17;11.77;;;10.57;;
44508;SDS011;30214;52.246;14.408;2022-08-14T00:22:47;15.07;;;9.80;;
44508;SDS011;30214;52.246;14.408;2022-08-14T00:25:14;15.10;;;9.77;;
44508;SDS011;30214;52.246;14.408;2022-08-14T00:27:41;12.15;;;10.70;;
44508;SDS011;30214;52.246;14.408;2022-08-14T00:30:09;10.50;;;9.43;;
44508;SDS011;30214;52.246;14.408;2022-08-14T00:32:37;12.40;;;10.23;;
44508;SDS011;30214;52.246;14.408;2022-08-14T00:35:06;16.50;;;11.20;;
44508;SDS011;30214;52.246;14.408;2022-08-14T00:37:37;13.45;;;9.95;;
44508;SDS011;30214;52.246;14.408;2022-08-14T00:40:07;15.07;;;10.15;;
44508;SDS011;30214;52.246;14.408;2022-08-14T00:42:38;11.88;;;10.63;;
44508;SDS011;30214;52.246;14.408;2022-08-14T00:45:07;12.57;;;10.05;;
44508;SDS011;30214;52.246;14.408;2022-08-14T00:47:37;10.98;;;9.88;;
44508;SDS011;30214;52.246;14.408;2022-08-14T00:50:05;10.00;;;9.00;;
44508;SDS011;30214;52.246;14.408;2022-08-14T00:52:37;14.10;;;9.85;;
44508;SDS011;30214;52.246;14.408;2022-08-14T00:55:05;9.95;;;8.95;;
44508;SDS011;30214;52.246;14.408;2022-08-14T00:57:34;10.80;;;9.27;;
44508;SDS011;30214;52.246;14.408;2022-08-14T01:00:04;11.85;;;9.57;;
44508;SDS011;30214;52.246;14.408;2022-08-14T01:02:36;11.07;;;9.98;;
44508;SDS011;30214;52.246;14.408;2022-08-14T01:05:07;11.05;;;9.93;;
44508;SDS011;30214;52.246;14.408;2022-08-14T01:07:49;10.88;;;9.77;;
44508;SDS011;30214;52.246;14.408;2022-08-14T01:10:18;12.60;;;10.35;;
44508;SDS011;30214;52.246;14.408;2022-08-14T01:12:46;11.60;;;9.85;;
44508;SDS011;30214;52.246;14.408;2022-08-14T01:15:13;12.95;;;9.98;;
44508;SDS011;30214;52.246;14.408;2022-08-14T01:17:45;12.70;;;9.65;;
44508;SDS011;30214;52.246;14.408;2022-08-14T01:20:30;10.57;;;9.48;;
44508;SDS011;30214;52.246;14.408;2022-08-14T01:23:16;11.65;;;9.55;;
44508;SDS011;30214;52.246;14.408;2022-08-14T01:25:47;14.13;;;10.27;;
44508;SDS011;30214;52.246;14.408;2022-08-14T01:28:15;11.60;;;10.07;;
44508;SDS011;30214;52.246;14.408;2022-08-14T01:30:42;11.00;;;8.95;;
44508;SDS011;30214;52.246;14.408;2022-08-14T01:33:09;10.57;;;9.57;;
44508;SDS011;30214;52.246;14.408;2022-08-14T01:35:37;11.65;;;10.45;;
44508;SDS011;30214;52.246;14.408;2022-08-14T01:38:04;12.02;;;10.50;;
44508;SDS011;30214;52.246;14.408;2022-08-14T01:40:34;13.60;;;11.13;;
44508;SDS011;30214;52.246;14.408;2022-08-14T01:43:02;13.00;;;11.10;;
44508;SDS011;30214;52.246;14.408;2022-08-14T01:45:35;14.30;;;10.85;;
44508;SDS011;30214;52.246;14.408;2022-08-14T01:48:03;14.00;;;11.13;;
44508;SDS011;30214;52.246;14.408;2022-08-14T01:50:30;12.18;;;10.43;;
44508;SDS011;30214;52.246;14.408;2022-08-14T01:52:57;12.40;;;10.93;;
44508;SDS011;30214;52.246;14.408;2022-08-14T01:55:25;11.85;;;10.68;;
44508;SDS011;30214;52.246;14.408;2022-08-14T01:57:57;13.25;;;10.30;;
44508;SDS011;30214;52.246;14.408;2022-08-14T02:00:24;11.93;;;9.75;;
44508;SDS011;30214;52.246;14.408;2022-08-14T02:02:51;11.85;;;10.40;;
44508;SDS011;30214;52.246;14.408;2022-08-14T02:05:21;11.63;;;10.52;;
44508;SDS011;30214;52.246;14.408;2022-08-14T02:07:55;12.38;;;10.55;;
44508;SDS011;30214;52.246;14.408;2022-08-14T02:10:22;12.40;;;11.07;;
44508;SDS011;30214;52.246;14.408;2022-08-14T02:12:53;13.98;;;10.02;;
44508;SDS011;30214;52.246;14.408;2022-08-14T02:15:23;11.95;;;10.63;;
44508;SDS011;30214;52.246;14.408;2022-08-14T02:17:50;13.30;;;10.60;;
44508;SDS011;30214;52.246;14.408;2022-08-14T02:20:17;12.70;;;10.73;;
44508;SDS011;30214;52.246;14.408;2022-08-14T02:22:45;12.18;;;10.60;;
44508;SDS011;30214;52.246;14.408;2022-08-14T02:25:12;15.57;;;9.43;;
44508;SDS011;30214;52.246;14.408;2022-08-14T02:27:39;13.77;;;9.60;;
44508;SDS011;30214;52.246;14.408;2022-08-14T02:30:10;14.70;;;10.00;;
44508;SDS011;30214;52.246;14.408;2022-08-14T02:32:41;9.90;;;8.93;;
44508;SDS011;30214;52.246;14.408;2022-08-14T02:35:10;14.85;;;9.90;;
44508;SDS011;30214;52.246;14.408;2022-08-14T02:37:42;11.23;;;9.38;;
44508;SDS011;30214;52.246;14.408;2022-08-14T02:40:10;12.57;;;9.15;;
44508;SDS011;30214;52.246;14.408;2022-08-14T02:42:38;11.73;;;9.20;;
44508;SDS011;30214;52.246;14.408;2022-08-14T02:45:05;10.48;;;9.45;;
44508;SDS011;30214;52.246;14.408;2022-08-14T02:47:34;10.93;;;9.30;;
44508;SDS011;30214;52.246;14.408;2022-08-14T02:50:03;11.48;;;9.52;;
44508;SDS011;30214;52.246;14.408;2022-08-14T02:52:31;10.23;;;9.23;;
44508;SDS011;30214;52.246;14.408;2022-08-14T02:54:59;9.97;;;8.93;;
44508;SDS011;30214;52.246;14.408;2022-08-14T02:57:26;10.23;;;8.15;;
44508;SDS011;30214;52.246;14.408;2022-08-14T02:59:54;9.57;;;8.63;;
44508;SDS011;30214;52.246;14.408;2022-08-14T03:02:22;12.20;;;9.10;;
44508;SDS011;30214;52.246;14.408;2022-08-14T03:04:50;8.57;;;7.72;;
44508;SDS011;30214;52.246;14.408;2022-08-14T03:07:20;13.52;;;8.23;;
44508;SDS011;30214;52.246;14.408;2022-08-14T03:09:47;9.77;;;8.77;;
44508;SDS011;30214;52.246;14.408;2022-08-14T03:12:15;11.10;;;8.20;;
44508;SDS011;30214;52.246;14.408;2022-08-14T03:14:42;10.70;;;8.93;;
44508;SDS011;30214;52.246;14.408;2022-08-14T03:17:12;14.95;;;9.38;;
44508;SDS011;30214;52.246;14.408;2022-08-14T03:19:40;12.70;;;9.63;;
44508;SDS011;30214;52.246;14.408;2022-08-14T03:22:07;10.73;;;9.00;;
44508;SDS011;30214;52.246;14.408;2022-08-14T03:24:36;9.55;;;8.60;;
44508;SDS011;30214;52.246;14.408;2022-08-14T03:27:03;10.18;;;9.23;;
44508;SDS011;30214;52.246;14.408;2022-08-14T03:29:31;11.73;;;10.48;;
44508;SDS011;30214;52.246;14.408;2022-08-14T03:31:58;12.32;;;10.43;;
44508;SDS011;30214;52.246;14.408;2022-08-14T03:34:25;11.50;;;10.23;;
44508;SDS011;30214;52.246;14.408;2022-08-14T03:36:52;16.10;;;10.68;;
44508;SDS011;30214;52.246;14.408;2022-08-14T03:39:22;11.73;;;10.27;;
44508;SDS011;30214;52.246;14.408;2022-08-14T03:41:53;12.20;;;9.63;;
44508;SDS011;30214;52.246;14.408;2022-08-14T03:44:22;13.45;;;10.65;;
44508;SDS011;30214;52.246;14.408;2022-08-14T03:46:50;12.02;;;9.85;;
44508;SDS011;30214;52.246;14.408;2022-08-14T03:49:19;11.40;;;10.30;;
44508;SDS011;30214;52.246;14.408;2022-08-14T03:51:48;12.10;;;9.40;;
44508;SDS011;30214;52.246;14.408;2022-08-14T03:54:16;11.10;;;9.48;;
44508;SDS011;30214;52.246;14.408;2022-08-14T03:56:43;9.85;;;8.70;;
44508;SDS011;30214;52.246;14.408;2022-08-14T03:59:12;12.43;;;10.45;;
44508;SDS011;30214;52.246;14.408;2022-08-14T04:01:39;11.35;;;9.75;;
44508;SDS011;30214;52.246;14.408;2022-08-14T04:04:08;11.77;;;10.15;;
44508;SDS011;30214;52.246;14.408;2022-08-14T04:06:35;15.85;;;10.45;;
44508;SDS011;30214;52.246;14.408;2022-08-14T04:09:04;11.48;;;10.27;;
44508;SDS011;30214;52.246;14.408;2022-08-14T04:11:32;12.05;;;10.00;;
44508;SDS011;30214;52.246;14.408;2022-08-14T04:14:00;14.40;;;10.90;;
44508;SDS011;30214;52.246;14.408;2022-08-14T04:16:29;11.45;;;10.27;;
44508;SDS011;30214;52.246;14.408;2022-08-14T04:18:56;11.82;;;10.10;;
44508;SDS011;30214;52.246;14.408;2022-08-14T04:21:26;11.05;;;9.82;;
44508;SDS011;30214;52.246;14.408;2022-08-14T04:23:54;12.70;;;9.82;;
44508;SDS011;30214;52.246;14.408;2022-08-14T04:26:23;11.40;;;10.18;;
44508;SDS011;30214;52.246;14.408;2022-08-14T04:28:53;11.00;;;9.90;;
44508;SDS011;30214;52.246;14.408;2022-08-14T04:31:21;11.27;;;10.07;;
44508;SDS011;30214;52.246;14.408;2022-08-14T04:33:51;11.57;;;9.85;;
44508;SDS011;30214;52.246;14.408;2022-08-14T04:36:19;15.30;;;9.63;;
44508;SDS011;30214;52.246;14.408;2022-08-14T04:38:46;13.60;;;10.10;;
44508;SDS011;30214;52.246;14.408;2022-08-14T04:41:31;12.15;;;10.48;;
44508;SDS011;30214;52.246;14.408;2022-08-14T04:44:12;11.85;;;9.60;;
44508;SDS011;30214;52.246;14.408;2022-08-14T04:46:39;13.15;;;10.38;;
44508;SDS011;30214;52.246;14.408;2022-08-14T04:49:28;13.65;;;10.45;;
44508;SDS011;30214;52.246;14.408;2022-08-14T04:51:55;13.00;;;8.98;;
44508;SDS011;30214;52.246;14.408;2022-08-14T04:54:23;13.52;;;9.00;;
44508;SDS011;30214;52.246;14.408;2022-08-14T04:56:52;10.18;;;9.18;;
44508;SDS011;30214;52.246;14.408;2022-08-14T04:59:20;10.77;;;9.77;;
44508;SDS011;30214;52.246;14.408;2022-08-14T05:01:48;13.93;;;10.32;;
44508;SDS011;30214;52.246;14.408;2022-08-14T05:04:16;12.80;;;10.35;;
44508;SDS011;30214;52.246;14.408;2022-08-14T05:06:45;14.35;;;10.88;;
44508;SDS011;30214;52.246;14.408;2022-08-14T05:09:12;12.65;;;11.30;;
44508;SDS011;30214;52.246;14.408;2022-08-14T05:11:39;13.73;;;11.15;;
44508;SDS011;30214;52.246;14.408;2022-08-14T05:14:07;12.95;;;10.93;;
44508;SDS011;30214;52.246;14.408;2022-08-14T05:16:34;11.95;;;10.65;;
44508;SDS011;30214;52.246;14.408;2022-08-14T05:19:01;11.80;;;10.57;;
44508;SDS011;30214;52.246;14.408;2022-08-14T05:21:29;12.85;;;10.23;;
44508;SDS011;30214;52.246;14.408;2022-08-14T05:24:00;10.43;;;9.38;;
44508;SDS011;30214;52.246;14.408;2022-08-14T05:26:28;10.45;;;9.35;;
44508;SDS011;30214;52.246;14.408;2022-08-14T05:28:55;15.68;;;9.73;;
44508;SDS011;30214;52.246;14.408;2022-08-14T05:31:22;11.75;;;9.50;;
44508;SDS011;30214;52.246;14.408;2022-08-14T05:33:49;10.15;;;9.15;;
44508;SDS011;30214;52.246;14.408;2022-08-14T05:36:18;15.00;;;9.63;;
44508;SDS011;30214;52.246;14.408;2022-08-14T05:38:45;10.98;;;9.77;;
44508;SDS011;30214;52.246;14.408;2022-08-14T05:41:15;13.55;;;8.95;;
44508;SDS011;30214;52.246;14.408;2022-08-14T05:43:44;10.73;;;9.32;;
44508;SDS011;30214;52.246;14.408;2022-08-14T05:46:13;9.82;;;8.82;;
44508;SDS011;30214;52.246;14.408;2022-08-14T05:48:46;11.70;;;9.13;;
44508;SDS011;30214;52.246;14.408;2022-08-14T05:51:14;10.40;;;9.25;;
44508;SDS011;30214;52.246;14.408;2022-08-14T05:53:41;10.88;;;9.02;;
44508;SDS011;30214;52.246;14.408;2022-08-14T05:56:08;10.55;;;9.00;;
44508;SDS011;30214;52.246;14.408;2022-08-14T05:58:37;10.90;;;9.20;;
44508;SDS011;30214;52.246;14.408;2022-08-14T06:01:05;11.23;;;9.15;;
44508;SDS011;30214;52.246;14.408;2022-08-14T06:03:33;13.45;;;10.30;;
44508;SDS011;30214;52.246;14.408;2022-08-14T06:06:01;11.68;;;9.30;;
44508;SDS011;30214;52.246;14.408;2022-08-14T06:08:29;13.85;;;9.57;;
44508;SDS011;30214;52.246;14.408;2022-08-14T06:10:58;11.38;;;9.60;;
44508;SDS011;30214;52.246;14.408;2022-08-14T06:13:28;11.90;;;9.63;;
44508;SDS011;30214;52.246;14.408;2022-08-14T06:15:56;11.18;;;9.35;;
44508;SDS011;30214;52.246;14.408;2022-08-14T06:18:24;11.27;;;9.57;;
44508;SDS011;30214;52.246;14.408;2022-08-14T06:20:51;11.15;;;9.48;;
44508;SDS011;30214;52.246;14.408;2022-08-14T06:23:19;10.27;;;8.98;;
44508;SDS011;30214;52.246;14.408;2022-08-14T06:25:46;10.90;;;9.35;;
44508;SDS011;30214;52.246;14.408;2022-08-14T06:28:17;12.25;;;9.88;;
44508;SDS011;30214;52.246;14.408;2022-08-14T06:30:46;12.70;;;9.65;;
44508;SDS011;30214;52.246;14.408;2022-08-14T06:33:16;11.75;;;9.57;;
44508;SDS011;30214;52.246;14.408;2022-08-14T06:35:46;11.88;;;10.00;;
44508;SDS011;30214;52.246;14.408;2022-08-14T06:38:15;10.57;;;9.40;;
44508;SDS011;30214;52.246;14.408;2022-08-14T06:40:44;12.98;;;9.75;;
44508;SDS011;30214;52.246;14.408;2022-08-14T06:43:12;12.70;;;9.43;;
44508;SDS011;30214;52.246;14.408;2022-08-14T06:45:42;11.30;;;10.10;;
44508;SDS011;30214;52.246;14.408;2022-08-14T06:48:11;13.90;;;9.80;;
44508;SDS011;30214;52.246;14.408;2022-08-14T06:50:42;10.93;;;9.02;;
44508;SDS011;30214;52.246;14.408;2022-08-14T06:53:10;10.25;;;9.25;;
44508;SDS011;30214;52.246;14.408;2022-08-14T06:55:38;15.13;;;9.15;;
44508;SDS011;30214;52.246;14.408;2022-08-14T06:58:09;10.25;;;9.25;;
44508;SDS011;30214;52.246;14.408;2022-08-14T07:00:37;9.88;;;8.90;;
44508;SDS011;30214;52.246;14.408;2022-08-14T07:03:05;12.93;;;9.98;;
44508;SDS011;30214;52.246;14.408;2022-08-14T07:05:51;10.05;;;9.05;;
44508;SDS011;30214;52.246;14.408;2022-08-14T07:08:19;10.13;;;9.02;;
44508;SDS011;30214;52.246;14.408;2022-08-14T07:10:50;12.27;;;8.88;;
44508;SDS011;30214;52.246;14.408;2022-08-14T07:13:19;10.05;;;8.20;;
44508;SDS011;30214;52.246;14.408;2022-08-14T07:15:49;11.88;;;9.32;;
44508;SDS011;30214;52.246;14.408;2022-08-14T07:18:19;10.65;;;8.50;;
44508;SDS011;30214;52.246;14.408;2022-08-14T07:20:47;8.27;;;7.40;;
44508;SDS011;30214;52.246;14.408;2022-08-14T07:23:17;12.10;;;8.23;;
44508;SDS011;30214;52.246;14.408;2022-08-14T07:25:45;11.60;;;7.95;;
44508;SDS011;30214;52.246;14.408;2022-08-14T07:28:13;10.80;;;7.60;;
44508;SDS011;30214;52.246;14.408;2022-08-14T07:30:41;8.02;;;6.88;;
44508;SDS011;30214;52.246;14.408;2022-08-14T07:33:09;10.60;;;7.30;;
44508;SDS011;30214;52.246;14.408;2022-08-14T07:35:38;11.88;;;7.13;;
44508;SDS011;30214;52.246;14.408;2022-08-14T07:38:07;9.38;;;6.70;;
44508;SDS011;30214;52.246;14.408;2022-08-14T07:40:41;10.82;;;6.68;;
44508;SDS011;30214;52.246;14.408;2022-08-14T07:43:08;11.80;;;6.65;;
44508;SDS011;30214;52.246;14.408;2022-08-14T07:45:35;11.98;;;6.55;;
44508;SDS011;30214;52.246;14.408;2022-08-14T07:48:02;8.18;;;7.10;;
44508;SDS011;30214;52.246;14.408;2022-08-14T07:50:30;9.02;;;6.85;;
44508;SDS011;30214;52.246;14.408;2022-08-14T07:53:00;9.15;;;7.03;;
44508;SDS011;30214;52.246;14.408;2022-08-14T07:55:29;13.43;;;7.85;;
44508;SDS011;30214;52.246;14.408;2022-08-14T07:57:56;9.82;;;7.22;;
44508;SDS011;30214;52.246;14.408;2022-08-14T08:00:24;10.63;;;7.30;;
44508;SDS011;30214;52.246;14.408;2022-08-14T08:02:53;10.05;;;7.45;;
44508;SDS011;30214;52.246;14.408;2022-08-14T08:05:22;12.70;;;6.93;;
44508;SDS011;30214;52.246;14.408;2022-08-14T08:07:51;12.45;;;6.90;;
44508;SDS011;30214;52.246;14.408;2022-08-14T08:10:20;11.88;;;7.65;;
44508;SDS011;30214;52.246;14.408;2022-08-14T08:12:58;11.63;;;7.72;;
44508;SDS011;30214;52.246;14.408;2022-08-14T08:15:28;9.35;;;7.65;;
44508;SDS011;30214;52.246;14.408;2022-08-14T08:17:58;11.45;;;8.13;;
44508;SDS011;30214;52.246;14.408;2022-08-14T08:20:29;8.95;;;7.40;;
44508;SDS011;30214;52.246;14.408;2022-08-14T08:22:59;12.05;;;7.72;;
44508;SDS011;30214;52.246;14.408;2022-08-14T08:25:29;11.27;;;6.40;;
44508;SDS011;30214;52.246;14.408;2022-08-14T08:28:01;10.73;;;7.10;;
44508;SDS011;30214;52.246;14.408;2022-08-14T08:30:32;10.88;;;6.93;;
44508;SDS011;30214;52.246;14.408;2022-08-14T08:33:03;9.80;;;7.30;;
44508;SDS011;30214;52.246;14.408;2022-08-14T08:35:33;8.05;;;6.57;;
44508;SDS011;30214;52.246;14.408;2022-08-14T08:38:04;10.80;;;6.72;;
44508;SDS011;30214;52.246;14.408;2022-08-14T08:40:34;8.30;;;6.25;;
44508;SDS011;30214;52.246;14.408;2022-08-14T08:43:07;11.18;;;6.00;;
44508;SDS011;30214;52.246;14.408;2022-08-14T08:45:42;10.32;;;6.15;;
44508;SDS011;30214;52.246;14.408;2022-08-14T08:48:09;10.57;;;6.20;;
44508;SDS011;30214;52.246;14.408;2022-08-14T08:50:38;11.65;;;5.65;;
44508;SDS011;30214;52.246;14.408;2022-08-14T08:53:05;9.48;;;5.85;;
44508;SDS011;30214;52.246;14.408;2022-08-14T08:55:36;10.38;;;5.80;;
44508;SDS011;30214;52.246;14.408;2022-08-14T08:58:08;7.05;;;5.75;;
44508;SDS011;30214;52.246;14.408;2022-08-14T09:00:38;8.50;;;6.00;;
44508;SDS011;30214;52.246;14.408;2022-08-14T09:03:07;9.52;;;5.70;;
44508;SDS011;30214;52.246;14.408;2022-08-14T09:05:37;7.40;;;5.75;;
44508;SDS011;30214;52.246;14.408;2022-08-14T09:08:15;12.23;;;6.25;;
44508;SDS011;30214;52.246;14.408;2022-08-14T09:10:44;8.52;;;5.68;;
44508;SDS011;30214;52.246;14.408;2022-08-14T09:13:14;9.43;;;5.65;;
44508;SDS011;30214;52.246;14.408;2022-08-14T09:15:43;8.25;;;5.40;;
44508;SDS011;30214;52.246;14.408;2022-08-14T09:18:14;7.43;;;5.70;;
44508;SDS011;30214;52.246;14.408;2022-08-14T09:20:46;12.52;;;5.32;;
44508;SDS011;30214;52.246;14.408;2022-08-14T09:23:15;9.05;;;5.28;;
44508;SDS011;30214;52.246;14.408;2022-08-14T09:25:44;5.35;;;4.57;;
44508;SDS011;30214;52.246;14.408;2022-08-14T09:28:15;9.25;;;5.38;;
44508;SDS011;30214;52.246;14.408;2022-08-14T09:30:45;7.22;;;5.00;;
44508;SDS011;30214;52.246;14.408;2022-08-14T09:33:20;9.88;;;4.72;;
44508;SDS011;30214;52.246;14.408;2022-08-14T09:36:02;7.05;;;4.43;;
44508;SDS011;30214;52.246;14.408;2022-08-14T09:38:50;6.78;;;4.10;;
44508;SDS011;30214;52.246;14.408;2022-08-14T09:41:33;5.95;;;3.42;;
44508;SDS011;30214;52.246;14.408;2022-08-14T09:44:18;8.27;;;3.95;;
44508;SDS011;30214;52.246;14.408;2022-08-14T09:46:58;11.93;;;3.90;;
44508;SDS011;30214;52.246;14.408;2022-08-14T09:49:29;10.60;;;3.70;;
44508;SDS011;30214;52.246;14.408;2022-08-14T09:52:04;8.45;;;3.45;;
44508;SDS011;30214;52.246;14.408;2022-08-14T09:54:35;9.18;;;3.88;;
44508;SDS011;30214;52.246;14.408;2022-08-14T09:57:05;6.70;;;3.33;;
44508;SDS011;30214;52.246;14.408;2022-08-14T09:59:42;5.97;;;3.60;;
44508;SDS011;30214;52.246;14.408;2022-08-14T10:02:18;11.90;;;3.70;;
44508;SDS011;30214;52.246;14.408;2022-08-14T10:04:57;7.07;;;3.22;;
44508;SDS011;30214;52.246;14.408;2022-08-14T10:07:30;5.32;;;3.10;;
44508;SDS011;30214;52.246;14.408;2022-08-14T10:09:59;5.80;;;3.20;;
44508;SDS011;30214;52.246;14.408;2022-08-14T10:12:40;9.05;;;3.30;;
44508;SDS011;30214;52.246;14.408;2022-08-14T10:15:18;8.60;;;3.90;;
44508;SDS011;30214;52.246;14.408;2022-08-14T10:17:49;6.55;;;3.53;;
44508;SDS011;30214;52.246;14.408;2022-08-14T10:20:32;6.70;;;3.15;;
44508;SDS011;30214;52.246;14.408;2022-08-14T10:23:10;6.60;;;3.33;;
44508;SDS011;30214;52.246;14.408;2022-08-14T10:25:39;7.35;;;3.83;;
44508;SDS011;30214;52.246;14.408;2022-08-14T10:28:09;6.03;;;3.70;;
44508;SDS011;30214;52.246;14.408;2022-08-14T10:30:41;4.82;;;3.50;;
44508;SDS011;30214;52.246;14.408;2022-08-14T10:33:22;8.52;;;3.42;;
44508;SDS011;30214;52.246;14.408;2022-08-14T10:35:51;6.30;;;3.47;;
44508;SDS011;30214;52.246;14.408;2022-08-14T10:38:28;6.07;;;3.72;;
44508;SDS011;30214;52.246;14.408;2022-08-14T10:41:08;9.43;;;3.65;;
44508;SDS011;30214;52.246;14.408;2022-08-14T10:43:37;9.15;;;3.30;;
44508;SDS011;30214;52.246;14.408;2022-08-14T10:46:12;10.27;;;3.08;;
44508;SDS011;30214;52.246;14.408;2022-08-14T10:48:42;6.97;;;3.30;;
44508;SDS011;30214;52.246;14.408;2022-08-14T10:51:23;5.53;;;3.10;;
44508;SDS011;30214;52.246;14.408;2022-08-14T10:53:52;5.50;;;3.13;;
44508;SDS011;30214;52.246;14.408;2022-08-14T10:56:27;10.45;;;3.28;;
44508;SDS011;30214;52.246;14.408;2022-08-14T10:58:59;6.63;;;3.20;;
44508;SDS011;30214;52.246;14.408;2022-08-14T11:01:30;6.13;;;3.10;;
44508;SDS011;30214;52.246;14.408;2022-08-14T11:03:58;7.03;;;3.13;;
44508;SDS011;30214;52.246;14.408;2022-08-14T11:06:26;5.30;;;2.92;;
44508;SDS011;30214;52.246;14.408;2022-08-14T11:08:57;4.72;;;2.85;;
44508;SDS011;30214;52.246;14.408;2022-08-14T11:11:24;6.10;;;2.80;;
44508;SDS011;30214;52.246;14.408;2022-08-14T11:13:53;9.50;;;3.10;;
44508;SDS011;30214;52.246;14.408;2022-08-14T11:16:22;4.95;;;2.92;;
44508;SDS011;30214;52.246;14.408;2022-08-14T11:18:53;7.95;;;3.13;;
44508;SDS011;30214;52.246;14.408;2022-08-14T11:21:21;5.30;;;2.90;;
44508;SDS011;30214;52.246;14.408;2022-08-14T11:23:48;7.25;;;3.38;;
44508;SDS011;30214;52.246;14.408;2022-08-14T11:26:16;7.07;;;2.78;;
44508;SDS011;30214;52.246;14.408;2022-08-14T11:28:48;8.30;;;3.00;;
44508;SDS011;30214;52.246;14.408;2022-08-14T11:31:17;6.22;;;3.13;;
44508;SDS011;30214;52.246;14.408;2022-08-14T11:33:47;5.32;;;3.10;;
44508;SDS011;30214;52.246;14.408;2022-08-14T11:36:20;4.60;;;2.80;;
44508;SDS011;30214;52.246;14.408;2022-08-14T11:38:52;7.00;;;3.25;;
44508;SDS011;30214;52.246;14.408;2022-08-14T11:41:20;6.70;;;2.70;;
44508;SDS011;30214;52.246;14.408;2022-08-14T11:43:48;5.70;;;2.90;;
44508;SDS011;30214;52.246;14.408;2022-08-14T11:46:16;6.97;;;2.90;;
44508;SDS011;30214;52.246;14.408;2022-08-14T11:48:45;5.40;;;2.90;;
44508;SDS011;30214;52.246;14.408;2022-08-14T11:51:14;5.80;;;3.00;;
44508;SDS011;30214;52.246;14.408;2022-08-14T11:53:50;8.48;;;3.15;;
44508;SDS011;30214;52.246;14.408;2022-08-14T11:56:20;4.68;;;2.72;;
44508;SDS011;30214;52.246;14.408;2022-08-14T11:58:49;6.13;;;2.70;;
44508;SDS011;30214;52.246;14.408;2022-08-14T12:01:22;6.18;;;2.60;;
44508;SDS011;30214;52.246;14.408;2022-08-14T12:03:55;7.30;;;2.90;;
44508;SDS011;30214;52.246;14.408;2022-08-14T12:06:42;5.15;;;2.50;;
44508;SDS011;30214;52.246;14.408;2022-08-14T12:09:28;6.47;;;2.92;;
44508;SDS011;30214;52.246;14.408;2022-08-14T12:11:56;9.02;;;2.65;;
44508;SDS011;30214;52.246;14.408;2022-08-14T12:14:23;7.32;;;2.60;;
44508;SDS011;30214;52.246;14.408;2022-08-14T12:17:00;5.80;;;2.38;;
44508;SDS011;30214;52.246;14.408;2022-08-14T12:19:30;4.97;;;2.55;;
44508;SDS011;30214;52.246;14.408;2022-08-14T12:22:10;5.45;;;2.50;;
44508;SDS011;30214;52.246;14.408;2022-08-14T12:24:39;7.70;;;2.90;;
44508;SDS011;30214;52.246;14.408;2022-08-14T12:27:08;5.13;;;2.60;;
44508;SDS011;30214;52.246;14.408;2022-08-14T12:29:37;5.20;;;2.50;;
44508;SDS011;30214;52.246;14.408;2022-08-14T12:32:06;3.13;;;2.60;;
44508;SDS011;30214;52.246;14.408;2022-08-14T12:34:34;4.50;;;2.30;;
44508;SDS011;30214;52.246;14.408;2022-08-14T12:37:02;7.63;;;2.58;;
44508;SDS011;30214;52.246;14.408;2022-08-14T12:39:31;7.22;;;2.50;;
44508;SDS011;30214;52.246;14.408;2022-08-14T12:42:00;5.40;;;2.80;;
44508;SDS011;30214;52.246;14.408;2022-08-14T12:44:31;4.30;;;2.60;;
44508;SDS011;30214;52.246;14.408;2022-08-14T12:47:04;6.40;;;2.58;;
44508;SDS011;30214;52.246;14.408;2022-08-14T12:49:36;4.65;;;2.53;;
44508;SDS011;30214;52.246;14.408;2022-08-14T12:52:04;10.25;;;2.60;;
44508;SDS011;30214;52.246;14.408;2022-08-14T12:54:32;9.95;;;2.67;;
44508;SDS011;30214;52.246;14.408;2022-08-14T12:57:05;6.53;;;2.50;;
44508;SDS011;30214;52.246;14.408;2022-08-14T12:59:35;5.95;;;2.50;;
44508;SDS011;30214;52.246;14.408;2022-08-14T13:02:03;6.63;;;2.50;;
44508;SDS011;30214;52.246;14.408;2022-08-14T13:04:30;7.38;;;2.50;;
44508;SDS011;30214;52.246;14.408;2022-08-14T13:06:59;4.57;;;2.35;;
44508;SDS011;30214;52.246;14.408;2022-08-14T13:09:31;4.88;;;2.30;;
44508;SDS011;30214;52.246;14.408;2022-08-14T13:11:59;6.75;;;2.45;;
44508;SDS011;30214;52.246;14.408;2022-08-14T13:14:30;9.30;;;2.72;;
44508;SDS011;30214;52.246;14.408;2022-08-14T13:16:58;5.68;;;2.50;;
44508;SDS011;30214;52.246;14.408;2022-08-14T13:19:28;4.20;;;2.40;;
44508;SDS011;30214;52.246;14.408;2022-08-14T13:21:55;7.18;;;2.33;;
44508;SDS011;30214;52.246;14.408;2022-08-14T13:24:23;6.40;;;3.08;;
44508;SDS011;30214;52.246;14.408;2022-08-14T13:26:51;5.80;;;2.42;;
44508;SDS011;30214;52.246;14.408;2022-08-14T13:29:23;6.25;;;2.60;;
44508;SDS011;30214;52.246;14.408;2022-08-14T13:31:55;3.95;;;2.40;;
44508;SDS011;30214;52.246;14.408;2022-08-14T13:34:23;3.47;;;2.42;;
44508;SDS011;30214;52.246;14.408;2022-08-14T13:36:53;5.00;;;2.50;;
44508;SDS011;30214;52.246;14.408;2022-08-14T13:39:23;5.88;;;2.53;;
44508;SDS011;30214;52.246;14.408;2022-08-14T13:41:53;6.65;;;2.60;;
44508;SDS011;30214;52.246;14.408;2022-08-14T13:44:22;4.15;;;2.50;;
44508;SDS011;30214;52.246;14.408;2022-08-14T13:46:54;7.65;;;2.70;;
44508;SDS011;30214;52.246;14.408;2022-08-14T13:49:22;5.35;;;2.80;;
44508;SDS011;30214;52.246;14.408;2022-08-14T13:51:50;3.50;;;2.40;;
44508;SDS011;30214;52.246;14.408;2022-08-14T13:54:22;5.00;;;2.60;;
44508;SDS011;30214;52.246;14.408;2022-08-14T13:56:57;6.30;;;2.50;;
44508;SDS011;30214;52.246;14.408;2022-08-14T13:59:28;7.00;;;2.55;;
44508;SDS011;30214;52.246;14.408;2022-08-14T14:02:00;5.18;;;2.92;;
44508;SDS011;30214;52.246;14.408;2022-08-14T14:04:31;4.97;;;2.60;;
44508;SDS011;30214;52.246;14.408;2022-08-14T14:07:04;8.00;;;2.88;;
44508;SDS011;30214;52.246;14.408;2022-08-14T14:09:38;3.53;;;2.80;;
44508;SDS011;30214;52.246;14.408;2022-08-14T14:12:07;6.38;;;3.03;;
44508;SDS011;30214;52.246;14.408;2022-08-14T14:14:35;5.85;;;3.40;;
44508;SDS011;30214;52.246;14.408;2022-08-14T14:17:04;5.85;;;3.30;;
44508;SDS011;30214;52.246;14.408;2022-08-14T14:19:33;5.60;;;3.40;;
44508;SDS011;30214;52.246;14.408;2022-08-14T14:22:01;5.95;;;3.60;;
44508;SDS011;30214;52.246;14.408;2022-08-14T14:24:29;7.75;;;3.65;;
44508;SDS011;30214;52.246;14.408;2022-08-14T14:26:58;6.00;;;3.50;;
44508;SDS011;30214;52.246;14.408;2022-08-14T14:29:28;6.28;;;3.58;;
44508;SDS011;30214;52.246;14.408;2022-08-14T14:31:57;5.72;;;3.83;;
44508;SDS011;30214;52.246;14.408;2022-08-14T14:34:28;9.25;;;3.92;;
44508;SDS011;30214;52.246;14.408;2022-08-14T14:36:57;5.18;;;3.67;;
44508;SDS011;30214;52.246;14.408;2022-08-14T14:39:29;5.13;;;4.03;;